Decoded Metar for UKLI (IVANO-FRANKIVSK in UKRAINE) (IATA:N/A) | Meteo·Mobile Aviation Weather
aviador You're here:

UKLI Decoded Metar

IVANO-FRANKIVSK in UKRAINE
Report Time2018-10-17 06:00:00
UTC Time2018-10-17 06:12:14
Flight Rules ifr IFR
WindCalm
Visibility3900 m
Phenomena:Patches Fog
Clouds:N/A
CeilingNone
Temp03°C (ISA -10)
Dew Point03°C (100% RH)
AAT1.5°C
QNH1025 hPa
Density Alt-614 ft
Elevation919 ft
Report Wrong Elevation
Raw Report
UKLI 170600Z 00000MPS 3900 BCFG NSC 03/03 Q1025 R28/090070
NOSIG=

Extra information for UKLI:More info

Metar Taf Metar & Taf Last 4 Metars F.Rules Stats Wind Profile Meteogram Temp Stats Airport Information Weather charts Add Link Nearby VenuesMetar ALERT Operation Metar Decoded Social comments